createdAt,value
2023-01-27T00:00:54.943Z,88.51
2023-01-27T00:03:24.378Z,88.50
2023-01-27T00:05:52.039Z,88.71
2023-01-27T00:08:20.258Z,88.63
2023-01-27T00:10:47.977Z,88.56
2023-01-27T00:13:15.565Z,88.50
2023-01-27T00:15:43.148Z,88.52
2023-01-27T00:18:10.763Z,88.63
2023-01-27T00:20:38.335Z,88.60
2023-01-27T00:23:05.902Z,88.63
2023-01-27T00:25:33.515Z,88.75
2023-01-27T00:28:01.083Z,88.81
2023-01-27T00:30:28.664Z,88.97
2023-01-27T00:32:56.244Z,88.93
2023-01-27T00:35:24.140Z,89.03
2023-01-27T00:37:51.770Z,88.98
2023-01-27T00:40:19.390Z,89.15
2023-01-27T00:42:47.001Z,88.91
2023-01-27T00:45:14.669Z,88.97
2023-01-27T00:47:42.245Z,88.91
2023-01-27T00:50:10.762Z,88.89
2023-01-27T00:52:38.541Z,88.96
2023-01-27T00:55:07.153Z,88.80
2023-01-27T00:57:34.729Z,88.88
2023-01-27T01:00:02.588Z,88.95
2023-01-27T01:02:30.290Z,89.05
2023-01-27T01:04:58.320Z,88.99
2023-01-27T01:07:25.935Z,89.22
2023-01-27T01:09:53.518Z,89.29
2023-01-27T01:12:21.217Z,89.32
2023-01-27T01:14:48.777Z,89.34
2023-01-27T01:17:16.414Z,89.30
2023-01-27T01:19:44.027Z,89.28
2023-01-27T01:22:11.599Z,89.46
2023-01-27T01:24:39.156Z,89.42
2023-01-27T01:27:06.711Z,89.38
2023-01-27T01:29:34.310Z,89.46
2023-01-27T01:32:01.913Z,89.68
2023-01-27T01:34:29.505Z,89.88
2023-01-27T01:36:57.058Z,89.89
2023-01-27T01:39:24.623Z,89.95
2023-01-27T01:41:52.210Z,89.86
2023-01-27T01:44:25.341Z,89.98
2023-01-27T01:46:53.112Z,89.86
2023-01-27T01:49:26.257Z,89.99
2023-01-27T01:52:00.247Z,90.00
2023-01-27T01:54:33.391Z,90.12
2023-01-27T01:57:10.801Z,90.13
2023-01-27T01:59:45.815Z,89.87
2023-01-27T02:02:19.723Z,89.97
2023-01-27T02:04:56.264Z,89.98
2023-01-27T02:07:38.786Z,89.80
2023-01-27T02:10:06.673Z,89.94
2023-01-27T02:12:34.267Z,89.95
2023-01-27T02:15:01.889Z,90.00
2023-01-27T02:17:29.566Z,90.08
2023-01-27T02:20:12.131Z,90.00
2023-01-27T02:22:47.506Z,89.89
2023-01-27T02:25:29.819Z,90.21
2023-01-27T02:27:57.410Z,90.29
2023-01-27T02:30:25.222Z,90.44
2023-01-27T02:32:52.916Z,90.29
2023-01-27T02:35:27.639Z,90.45
2023-01-27T02:37:57.548Z,90.28
2023-01-27T02:40:27.152Z,90.33
2023-01-27T02:42:57.134Z,90.41
2023-01-27T02:45:24.921Z,90.11
2023-01-27T02:47:52.581Z,89.88
2023-01-27T02:50:20.212Z,90.04
2023-01-27T02:52:47.797Z,90.19
2023-01-27T02:55:15.482Z,90.07
2023-01-27T02:57:43.101Z,90.11
2023-01-27T03:00:11.459Z,90.21
2023-01-27T03:02:39.291Z,90.12
2023-01-27T03:05:07.218Z,89.97
2023-01-27T03:07:34.782Z,89.88
2023-01-27T03:10:02.325Z,89.94
2023-01-27T03:12:29.931Z,89.96
2023-01-27T03:14:57.511Z,90.10
2023-01-27T03:17:25.074Z,90.02
2023-01-27T03:19:52.714Z,90.10
2023-01-27T03:22:20.343Z,90.20
2023-01-27T03:24:47.904Z,90.18
2023-01-27T03:27:15.469Z,90.22
2023-01-27T03:29:43.051Z,90.16
2023-01-27T03:32:10.608Z,90.22
2023-01-27T03:34:38.190Z,90.15
2023-01-27T03:37:05.838Z,90.30
2023-01-27T03:39:33.445Z,90.29
2023-01-27T03:42:01.010Z,90.11
2023-01-27T03:44:28.597Z,90.06
2023-01-27T03:46:56.297Z,90.05
2023-01-27T03:49:23.996Z,90.07
2023-01-27T03:51:51.756Z,90.22
2023-01-27T03:54:19.332Z,90.20
2023-01-27T03:56:46.890Z,90.25
2023-01-27T03:59:14.781Z,90.17
2023-01-27T04:01:42.420Z,90.13
2023-01-27T04:04:11.315Z,90.17
2023-01-27T04:06:41.125Z,90.08
2023-01-27T04:09:10.061Z,90.16
2023-01-27T04:11:37.704Z,90.14
2023-01-27T04:14:06.604Z,90.00
2023-01-27T04:16:34.905Z,90.13
2023-01-27T04:19:04.542Z,90.04
2023-01-27T04:21:32.335Z,90.02
2023-01-27T04:24:00.491Z,89.96
2023-01-27T04:26:28.920Z,89.98
2023-01-27T04:28:56.548Z,89.94
2023-01-27T04:31:24.119Z,89.80
2023-01-27T04:33:51.806Z,89.84
2023-01-27T04:36:19.375Z,89.74
2023-01-27T04:38:46.944Z,89.55
2023-01-27T04:41:14.492Z,89.54
2023-01-27T04:43:42.011Z,89.61
2023-01-27T04:46:09.698Z,89.53
2023-01-27T04:48:37.337Z,89.56
2023-01-27T04:51:05.026Z,89.41
2023-01-27T04:53:32.612Z,89.55
2023-01-27T04:56:05.919Z,89.54
2023-01-27T04:58:33.769Z,89.70
2023-01-27T05:01:01.317Z,89.56
2023-01-27T05:03:28.896Z,89.74
2023-01-27T05:05:56.553Z,89.66
2023-01-27T05:08:24.162Z,89.38
2023-01-27T05:10:51.728Z,89.37
2023-01-27T05:13:19.314Z,89.33
2023-01-27T05:15:47.045Z,89.12
2023-01-27T05:18:15.165Z,89.04
2023-01-27T05:20:42.704Z,89.36
2023-01-27T05:23:10.212Z,89.10
2023-01-27T05:25:37.832Z,88.94
2023-01-27T05:28:05.421Z,88.84
2023-01-27T05:30:33.033Z,88.85
2023-01-27T05:33:00.632Z,88.94
2023-01-27T05:35:28.187Z,88.70
2023-01-27T05:37:55.759Z,88.63
2023-01-27T05:40:23.330Z,88.68
2023-01-27T05:42:54.270Z,88.53
2023-01-27T05:45:21.953Z,88.37
2023-01-27T05:47:50.551Z,87.98
2023-01-27T05:50:18.456Z,88.09
2023-01-27T05:52:46.115Z,88.16
2023-01-27T05:55:14.064Z,88.06
2023-01-27T05:57:41.867Z,88.05
2023-01-27T06:00:10.139Z,88.12
2023-01-27T06:02:37.780Z,88.06
2023-01-27T06:05:05.829Z,87.69
2023-01-27T06:07:33.379Z,87.51
2023-01-27T06:10:00.893Z,87.22
2023-01-27T06:12:28.450Z,87.16
2023-01-27T06:14:55.986Z,87.18
2023-01-27T06:17:23.526Z,87.32
2023-01-27T06:19:51.053Z,87.36
2023-01-27T06:22:18.563Z,87.23
2023-01-27T06:24:46.072Z,87.19
2023-01-27T06:27:13.581Z,86.95
2023-01-27T06:29:41.088Z,86.91
2023-01-27T06:32:08.672Z,86.98
2023-01-27T06:34:36.300Z,86.57
2023-01-27T06:37:04.007Z,86.55
2023-01-27T06:39:31.568Z,86.60
2023-01-27T06:41:59.203Z,86.56
2023-01-27T06:44:26.748Z,86.54
2023-01-27T06:46:54.287Z,86.16
2023-01-27T06:49:22.060Z,86.03
2023-01-27T06:51:49.638Z,85.69
2023-01-27T06:54:17.360Z,85.80
2023-01-27T06:56:44.972Z,85.63
2023-01-27T06:59:12.637Z,85.09
2023-01-27T07:01:40.204Z,85.55
2023-01-27T07:04:07.862Z,85.66
2023-01-27T07:06:35.484Z,85.42
2023-01-27T07:09:03.043Z,85.35
2023-01-27T07:11:30.608Z,85.03
2023-01-27T07:13:58.128Z,84.99
2023-01-27T07:16:25.934Z,84.76
2023-01-27T07:18:53.498Z,85.13
2023-01-27T07:21:21.132Z,85.21
2023-01-27T07:23:48.674Z,85.28
2023-01-27T07:26:24.915Z,85.07
2023-01-27T07:28:53.107Z,85.04
2023-01-27T07:31:20.736Z,85.06
2023-01-27T07:33:48.400Z,84.85
2023-01-27T07:36:15.972Z,83.81
2023-01-27T07:38:43.576Z,84.24
2023-01-27T07:41:11.169Z,83.94
2023-01-27T07:43:38.768Z,84.09
2023-01-27T07:46:06.520Z,83.86
2023-01-27T07:48:34.137Z,83.45
2023-01-27T07:51:01.703Z,83.67
2023-01-27T07:53:29.251Z,83.75
2023-01-27T07:55:59.625Z,83.51
2023-01-27T07:58:27.213Z,83.45
2023-01-27T08:00:54.874Z,83.59
2023-01-27T08:03:25.296Z,83.47
2023-01-27T08:05:52.877Z,83.54
2023-01-27T08:08:20.443Z,83.43
2023-01-27T08:10:47.979Z,83.83
2023-01-27T08:13:15.756Z,83.48
2023-01-27T08:15:43.435Z,83.59
2023-01-27T08:18:10.985Z,83.46
2023-01-27T08:20:38.580Z,83.82
2023-01-27T08:23:06.113Z,83.53
2023-01-27T08:25:33.770Z,83.37
2023-01-27T08:28:01.350Z,83.82
2023-01-27T08:30:28.940Z,83.92
2023-01-27T08:32:56.501Z,84.03
2023-01-27T08:35:24.201Z,83.89
2023-01-27T08:37:51.816Z,83.60
2023-01-27T08:40:19.375Z,83.53
2023-01-27T08:42:49.443Z,83.29
2023-01-27T08:45:17.139Z,83.15
2023-01-27T08:47:44.775Z,83.54
2023-01-27T08:50:12.862Z,83.45
2023-01-27T08:52:41.015Z,83.43
2023-01-27T08:55:08.759Z,83.24
2023-01-27T08:57:37.251Z,82.93
2023-01-27T09:00:11.197Z,82.65
2023-01-27T09:02:38.981Z,82.05
2023-01-27T09:05:06.796Z,82.51
2023-01-27T09:07:34.373Z,82.32
2023-01-27T09:10:14.099Z,82.14
2023-01-27T09:12:47.841Z,82.02
2023-01-27T09:15:15.527Z,81.17
2023-01-27T09:17:43.175Z,80.86
2023-01-27T09:20:12.139Z,80.24
2023-01-27T09:22:41.095Z,80.77
2023-01-27T09:25:14.801Z,80.45
2023-01-27T09:27:43.507Z,80.10
2023-01-27T09:30:13.759Z,80.28
2023-01-27T09:32:42.237Z,79.31
2023-01-27T09:35:10.286Z,79.85
2023-01-27T09:37:44.962Z,79.73
2023-01-27T09:40:38.576Z,80.12
2023-01-27T09:43:24.752Z,80.79
2023-01-27T09:46:23.136Z,80.80
2023-01-27T09:49:18.349Z,80.98
2023-01-27T09:52:23.387Z,80.80
2023-01-27T09:55:11.857Z,80.80
2023-01-27T09:57:51.973Z,81.14
2023-01-27T10:00:31.404Z,80.69
2023-01-27T10:03:04.757Z,80.88
2023-01-27T10:05:47.871Z,80.96
2023-01-27T10:08:50.801Z,81.01
2023-01-27T10:11:58.028Z,80.46
2023-01-27T10:14:38.834Z,80.94
2023-01-27T10:17:40.958Z,80.47
2023-01-27T10:20:26.846Z,80.19
2023-01-27T10:22:54.395Z,80.35
2023-01-27T10:25:39.525Z,80.14
2023-01-27T10:28:13.110Z,79.29
2023-01-27T10:30:51.178Z,79.83
2023-01-27T10:33:28.390Z,79.75
2023-01-27T10:36:03.501Z,79.61
2023-01-27T10:38:41.050Z,79.55
2023-01-27T10:41:27.392Z,79.44
2023-01-27T10:44:16.595Z,79.62
2023-01-27T10:46:44.056Z,79.11
2023-01-27T10:49:14.319Z,78.79
2023-01-27T10:51:52.902Z,77.63
2023-01-27T10:54:45.832Z,77.79
2023-01-27T10:57:37.084Z,78.22
2023-01-27T11:03:22.200Z,77.45
2023-01-27T11:05:56.582Z,74.94
2023-01-27T11:08:31.920Z,75.00
2023-01-27T11:11:03.598Z,74.87
2023-01-27T11:13:32.470Z,74.10
2023-01-27T11:16:00.884Z,74.56
2023-01-27T11:18:30.544Z,74.63
2023-01-27T11:21:12.345Z,74.36
2023-01-27T11:23:43.316Z,74.53
2023-01-27T11:26:25.828Z,74.07
2023-01-27T11:29:17.640Z,73.56
2023-01-27T11:32:08.414Z,72.93
2023-01-27T11:34:45.894Z,72.79
2023-01-27T11:37:24.501Z,72.98
2023-01-27T11:39:52.149Z,73.61
2023-01-27T11:42:19.818Z,73.81
2023-01-27T11:44:51.196Z,73.82
2023-01-27T11:47:27.279Z,73.95
2023-01-27T11:49:57.475Z,74.44
2023-01-27T11:52:27.952Z,74.64
2023-01-27T11:54:55.414Z,74.14
2023-01-27T11:57:25.716Z,74.26
2023-01-27T12:00:19.785Z,74.36
2023-01-27T12:03:03.453Z,73.96
2023-01-27T12:05:34.635Z,74.32
2023-01-27T12:08:05.107Z,74.14
2023-01-27T12:10:37.012Z,73.88
2023-01-27T12:13:15.058Z,73.65
2023-01-27T12:15:51.377Z,73.42
2023-01-27T12:18:19.439Z,74.11
2023-01-27T12:20:56.563Z,74.67
2023-01-27T12:23:29.488Z,74.41
2023-01-27T12:26:02.612Z,74.17
2023-01-27T12:28:39.014Z,74.41
2023-01-27T12:31:18.045Z,74.59
2023-01-27T12:33:56.275Z,74.72
2023-01-27T12:36:24.874Z,74.21
2023-01-27T12:38:55.617Z,74.58
2023-01-27T12:41:27.132Z,74.15
2023-01-27T12:43:58.428Z,74.58
2023-01-27T12:46:28.269Z,74.51
2023-01-27T12:49:12.779Z,74.44
2023-01-27T12:51:51.063Z,74.43
2023-01-27T12:54:21.470Z,74.45
2023-01-27T12:56:51.855Z,74.04
2023-01-27T12:59:21.191Z,74.65
2023-01-27T13:02:18.013Z,74.45
2023-01-27T13:04:58.801Z,74.83
2023-01-27T13:07:32.026Z,75.13
2023-01-27T13:10:03.752Z,74.98
2023-01-27T13:12:48.735Z,74.35
2023-01-27T13:15:28.713Z,74.15
2023-01-27T13:18:11.677Z,73.10
2023-01-27T13:20:50.828Z,74.01
2023-01-27T13:23:37.355Z,74.73
2023-01-27T13:26:04.901Z,73.75
2023-01-27T13:28:57.077Z,74.48
2023-01-27T13:31:42.882Z,74.73
2023-01-27T13:34:33.458Z,74.26
2023-01-27T13:37:09.921Z,74.50
2023-01-27T13:39:54.880Z,74.54
2023-01-27T13:42:33.350Z,74.09
2023-01-27T13:45:13.023Z,74.44
2023-01-27T13:47:50.931Z,74.02
2023-01-27T13:50:28.446Z,74.47
2023-01-27T13:52:58.753Z,74.58
2023-01-27T13:55:44.685Z,74.68
2023-01-27T13:58:46.094Z,74.04
2023-01-27T14:01:34.965Z,74.36
2023-01-27T14:04:41.351Z,74.68
2023-01-27T14:07:26.410Z,74.51
2023-01-27T14:10:27.844Z,75.08
2023-01-27T14:13:26.243Z,75.15
2023-01-27T14:16:36.384Z,75.21
2023-01-27T14:19:30.647Z,75.34
2023-01-27T14:22:31.255Z,75.78
2023-01-27T14:25:18.098Z,75.93
2023-01-27T14:28:01.723Z,75.93
2023-01-27T14:30:36.717Z,75.77
2023-01-27T14:33:09.896Z,75.22
2023-01-27T14:35:44.929Z,76.10
2023-01-27T14:38:42.744Z,76.17
2023-01-27T14:41:12.876Z,76.30
2023-01-27T14:44:03.075Z,75.97
2023-01-27T14:46:42.501Z,76.41
2023-01-27T14:49:44.070Z,76.45
2023-01-27T14:52:43.874Z,76.47
2023-01-27T14:55:29.398Z,76.45
2023-01-27T14:58:18.287Z,76.88
2023-01-27T15:01:14.114Z,76.49
2023-01-27T15:03:50.756Z,76.74
2023-01-27T15:06:44.416Z,76.85
2023-01-27T15:09:27.975Z,77.01
2023-01-27T15:12:20.290Z,76.95
2023-01-27T15:15:13.124Z,76.09
2023-01-27T15:18:14.962Z,77.08
2023-01-27T15:21:11.642Z,76.97
2023-01-27T15:24:07.248Z,76.91
2023-01-27T15:26:37.494Z,76.95
2023-01-27T15:29:05.818Z,77.29
2023-01-27T15:34:24.715Z,77.29
2023-01-27T15:40:03.910Z,76.93
2023-01-27T15:45:46.481Z,76.91
2023-01-27T15:48:19.428Z,77.37
2023-01-27T15:51:02.936Z,77.69
2023-01-27T15:53:34.406Z,77.86
2023-01-27T15:59:05.059Z,78.48
2023-01-27T16:04:28.724Z,78.51
2023-01-27T16:07:02.854Z,77.87
2023-01-27T16:09:36.605Z,77.78
2023-01-27T16:12:32.024Z,76.94
2023-01-27T16:15:21.518Z,76.52
2023-01-27T16:18:06.213Z,76.85
2023-01-27T16:23:52.768Z,75.92
2023-01-27T16:29:20.601Z,75.08
2023-01-27T16:32:01.043Z,75.29
2023-01-27T16:34:35.652Z,74.90
2023-01-27T16:37:28.616Z,74.18
2023-01-27T16:40:03.866Z,74.02
2023-01-27T16:42:40.889Z,74.18
2023-01-27T16:48:15.206Z,71.93
2023-01-27T16:50:44.019Z,71.27
2023-01-27T16:53:18.709Z,72.09
2023-01-27T16:56:05.515Z,72.46
2023-01-27T16:58:45.508Z,72.40
2023-01-27T17:01:27.901Z,72.70
2023-01-27T17:06:44.085Z,72.78
2023-01-27T17:12:40.312Z,73.12
2023-01-27T17:15:28.467Z,72.79
2023-01-27T17:17:57.775Z,73.05
2023-01-27T17:20:34.454Z,73.35
2023-01-27T17:23:07.431Z,73.53
2023-01-27T17:25:37.948Z,73.45
2023-01-27T17:30:43.338Z,73.85
2023-01-27T17:33:20.567Z,74.02
2023-01-27T17:35:53.576Z,74.43
2023-01-27T17:38:23.246Z,74.44
2023-01-27T17:43:48.990Z,74.41
2023-01-27T17:49:04.915Z,74.65
2023-01-27T17:51:39.854Z,74.99
2023-01-27T17:54:20.421Z,74.54
2023-01-27T17:56:52.075Z,74.57
2023-01-27T18:02:30.345Z,74.79
2023-01-27T18:07:30.788Z,74.99
2023-01-27T18:09:58.404Z,75.13
2023-01-27T18:12:35.359Z,75.01
2023-01-27T18:15:37.343Z,75.19
2023-01-27T18:18:29.277Z,75.41
2023-01-27T18:21:09.391Z,75.60
2023-01-27T18:26:38.368Z,75.49
2023-01-27T18:29:15.039Z,75.64
2023-01-27T18:31:55.888Z,75.18
2023-01-27T18:34:32.644Z,75.28
2023-01-27T18:37:24.197Z,75.16
2023-01-27T18:39:52.047Z,75.34
2023-01-27T18:45:14.559Z,75.01
2023-01-27T18:47:42.586Z,75.20
2023-01-27T18:50:15.137Z,75.50
2023-01-27T18:52:42.919Z,76.06
2023-01-27T18:55:30.175Z,76.55
2023-01-27T18:58:00.250Z,76.24
2023-01-27T19:03:00.781Z,76.29
2023-01-27T19:05:33.256Z,76.65
2023-01-27T19:08:02.176Z,76.41
2023-01-27T19:10:32.781Z,76.66
2023-01-27T19:15:55.833Z,75.33
2023-01-27T19:18:32.341Z,74.09
2023-01-27T19:21:00.878Z,74.22
2023-01-27T19:23:29.174Z,74.20
2023-01-27T19:26:04.814Z,74.05
2023-01-27T19:28:37.543Z,73.78
2023-01-27T19:33:51.487Z,73.94
2023-01-27T19:36:27.483Z,74.31
2023-01-27T19:39:09.499Z,74.34
2023-01-27T19:41:37.141Z,74.81
2023-01-27T19:46:53.405Z,74.74
2023-01-27T19:52:11.267Z,74.24
2023-01-27T19:54:39.143Z,74.35
2023-01-27T19:57:13.614Z,74.20
2023-01-27T19:59:41.513Z,74.74
2023-01-27T20:05:03.786Z,74.65
2023-01-27T20:07:31.337Z,74.38
2023-01-27T20:09:59.178Z,74.30
2023-01-27T20:12:29.974Z,74.62
2023-01-27T20:15:21.100Z,74.70
2023-01-27T20:17:49.010Z,75.06
2023-01-27T20:23:07.201Z,74.54
2023-01-27T20:25:43.758Z,74.57
2023-01-27T20:28:12.305Z,74.85
2023-01-27T20:30:41.331Z,74.53
2023-01-27T20:33:10.134Z,73.98
2023-01-27T20:35:37.767Z,74.59
2023-01-27T20:38:05.530Z,74.91
2023-01-27T20:40:34.242Z,75.02
2023-01-27T20:43:02.024Z,75.15
2023-01-27T20:45:29.774Z,74.85
2023-01-27T20:47:57.651Z,75.14
2023-01-27T20:50:26.339Z,75.12
2023-01-27T20:52:54.252Z,75.57
2023-01-27T20:55:22.231Z,75.38
2023-01-27T20:57:50.006Z,75.20
2023-01-27T21:00:20.192Z,75.57
2023-01-27T21:02:48.834Z,75.35
2023-01-27T21:05:17.063Z,75.27
2023-01-27T21:07:44.904Z,75.59
2023-01-27T21:10:12.612Z,75.43
2023-01-27T21:12:40.187Z,75.60
2023-01-27T21:15:08.483Z,75.33
2023-01-27T21:17:36.015Z,75.28
2023-01-27T21:20:05.239Z,75.39
2023-01-27T21:22:33.240Z,75.87
2023-01-27T21:25:00.785Z,75.94
2023-01-27T21:27:29.081Z,75.74
2023-01-27T21:29:56.788Z,75.93
2023-01-27T21:32:24.467Z,75.40
2023-01-27T21:34:52.436Z,75.56
2023-01-27T21:37:20.050Z,75.88
2023-01-27T21:39:47.626Z,75.75
2023-01-27T21:42:15.360Z,75.37
2023-01-27T21:44:43.057Z,75.72
2023-01-27T21:47:13.315Z,75.91
2023-01-27T21:49:43.495Z,75.90
2023-01-27T21:52:11.221Z,76.25
2023-01-27T21:54:38.816Z,76.13
2023-01-27T21:57:06.332Z,76.39
2023-01-27T21:59:33.847Z,76.11
2023-01-27T22:02:01.568Z,76.12
2023-01-27T22:04:29.153Z,76.29
2023-01-27T22:06:57.040Z,76.04
2023-01-27T22:09:24.803Z,75.97
2023-01-27T22:11:52.364Z,76.20
2023-01-27T22:14:19.905Z,76.26
2023-01-27T22:16:49.924Z,76.62
2023-01-27T22:19:17.642Z,76.34
2023-01-27T22:21:45.219Z,76.13
2023-01-27T22:24:12.969Z,76.06
2023-01-27T22:26:40.509Z,75.99
2023-01-27T22:29:08.437Z,75.87
2023-01-27T22:31:36.096Z,75.96
2023-01-27T22:34:03.777Z,75.89
2023-01-27T22:36:31.352Z,75.98
2023-01-27T22:38:59.132Z,75.90
2023-01-27T22:41:28.596Z,76.25
2023-01-27T22:43:56.289Z,76.23
2023-01-27T22:46:24.330Z,76.42
2023-01-27T22:48:51.940Z,76.35
2023-01-27T22:51:19.716Z,75.92
2023-01-27T22:53:47.451Z,76.35
2023-01-27T22:56:15.074Z,76.18
2023-01-27T22:58:42.635Z,75.80
2023-01-27T23:01:10.273Z,76.28
2023-01-27T23:03:37.935Z,76.40
2023-01-27T23:06:07.483Z,76.09
2023-01-27T23:08:35.880Z,76.41
2023-01-27T23:11:05.388Z,76.53
2023-01-27T23:13:34.455Z,76.26
2023-01-27T23:16:02.210Z,76.39
2023-01-27T23:18:29.850Z,76.43
2023-01-27T23:21:03.505Z,76.29
2023-01-27T23:23:31.307Z,76.18
2023-01-27T23:25:59.349Z,76.49
2023-01-27T23:28:27.270Z,75.93
2023-01-27T23:30:54.878Z,76.35
2023-01-27T23:33:22.598Z,76.46
2023-01-27T23:35:56.128Z,76.04
2023-01-27T23:38:32.598Z,76.43
2023-01-27T23:41:07.475Z,76.34
2023-01-27T23:43:35.049Z,76.05
2023-01-27T23:46:02.654Z,76.26
2023-01-27T23:48:30.420Z,76.36
2023-01-27T23:50:58.202Z,76.14
2023-01-27T23:53:25.775Z,76.43
2023-01-27T23:55:58.060Z,76.72
2023-01-27T23:58:26.072Z,76.60
